createdAt,value
2023-04-24T00:01:35.242Z,97717.09
2023-04-24T00:04:21.142Z,97628.28
2023-04-24T00:07:07.915Z,97573.44
2023-04-24T00:09:53.210Z,97720.16
2023-04-24T00:12:39.087Z,97579.09
2023-04-24T00:15:24.736Z,97759.16
2023-04-24T00:18:09.929Z,97538.66
2023-04-24T00:20:55.316Z,97738.03
2023-04-24T00:23:40.557Z,97723.47
2023-04-24T00:26:26.344Z,97730.47
2023-04-24T00:29:12.092Z,97732.69
2023-04-24T00:31:57.623Z,97541.75
2023-04-24T00:34:43.231Z,97732.91
2023-04-24T00:37:28.548Z,97705.06
2023-04-24T00:40:13.938Z,97742.13
2023-04-24T00:42:59.460Z,97538.28
2023-04-24T00:45:44.812Z,97700.44
2023-04-24T00:48:31.721Z,97528.22
2023-04-24T00:51:17.052Z,97559.94
2023-04-24T00:54:02.634Z,97640.88
2023-04-24T00:56:48.427Z,97695.06
2023-04-24T00:59:33.839Z,97703.63
2023-04-24T01:02:19.806Z,97596.19
2023-04-24T01:05:06.267Z,97723.91
2023-04-24T01:07:51.949Z,97530.97
2023-04-24T01:10:38.842Z,97696.81
2023-04-24T01:13:25.026Z,97702.63
2023-04-24T01:16:11.046Z,97702.91
2023-04-24T01:18:56.318Z,97696.53
2023-04-24T01:21:44.323Z,97690.13
2023-04-24T01:24:30.971Z,97516.41
2023-04-24T01:27:16.650Z,97552.34
2023-04-24T01:30:05.452Z,97504.28
2023-04-24T01:32:52.624Z,97695.34
2023-04-24T01:35:39.022Z,97693.31
2023-04-24T01:38:24.755Z,97519.28
2023-04-24T01:41:10.666Z,97710.94
2023-04-24T01:43:56.189Z,97580.00
2023-04-24T01:46:42.408Z,97648.44
2023-04-24T01:49:28.235Z,97715.16
2023-04-24T01:52:13.550Z,97646.84
2023-04-24T01:55:01.160Z,97604.19
2023-04-24T01:57:46.822Z,97683.94
2023-04-24T02:00:32.206Z,97689.75
2023-04-24T02:03:18.434Z,97499.56
2023-04-24T02:06:04.315Z,97647.13
2023-04-24T02:08:50.674Z,97588.19
2023-04-24T02:11:36.080Z,97472.44
2023-04-24T02:14:21.308Z,97652.13
2023-04-24T02:17:07.617Z,97679.38
2023-04-24T02:19:55.978Z,97652.34
2023-04-24T02:22:41.387Z,97632.16
2023-04-24T02:25:26.632Z,97670.66
2023-04-24T02:28:14.711Z,97631.41
2023-04-24T02:31:00.960Z,97720.50
2023-04-24T02:33:46.572Z,97594.34
2023-04-24T02:36:32.585Z,97495.19
2023-04-24T02:39:17.912Z,97614.75
2023-04-24T02:42:03.915Z,97593.19
2023-04-24T02:44:49.471Z,97664.97
2023-04-24T02:47:35.165Z,97667.88
2023-04-24T02:50:21.321Z,97674.50
2023-04-24T02:53:06.907Z,97670.19
2023-04-24T02:55:52.594Z,97660.16
2023-04-24T02:58:37.975Z,97484.50
2023-04-24T03:01:23.414Z,97515.53
2023-04-24T03:04:08.899Z,97543.53
2023-04-24T03:06:55.847Z,97471.38
2023-04-24T03:09:42.122Z,97532.50
2023-04-24T03:12:27.791Z,97511.22
2023-04-24T03:15:14.048Z,97624.66
2023-04-24T03:17:59.681Z,97663.38
2023-04-24T03:20:47.431Z,97497.31
2023-04-24T03:23:33.394Z,97568.53
2023-04-24T03:26:18.904Z,97667.16
2023-04-24T03:29:17.774Z,97658.19
2023-04-24T03:32:03.351Z,97460.28
2023-04-24T03:34:50.828Z,97628.28
2023-04-24T03:37:36.555Z,97598.28
2023-04-24T03:40:42.301Z,97511.03
2023-04-24T03:43:46.598Z,97638.16
2023-04-24T03:46:31.963Z,97567.09
2023-04-24T03:49:19.870Z,97666.69
2023-04-24T03:52:06.663Z,97479.69
2023-04-24T03:54:52.206Z,97429.28
2023-04-24T03:57:37.593Z,97658.56
2023-04-24T04:00:33.250Z,97617.22
2023-04-24T04:03:39.084Z,97591.44
2023-04-24T04:06:24.673Z,97678.78
2023-04-24T04:09:12.442Z,97653.22
2023-04-24T04:11:57.862Z,97602.31
2023-04-24T04:14:43.315Z,97550.28
2023-04-24T04:17:28.854Z,97663.28
2023-04-24T04:20:14.846Z,97515.13
2023-04-24T04:23:01.030Z,97498.59
2023-04-24T04:25:59.035Z,97629.47
2023-04-24T04:28:54.628Z,97618.09
2023-04-24T04:31:41.033Z,97473.06
2023-04-24T04:34:30.763Z,97655.59
2023-04-24T04:37:16.546Z,97652.56
2023-04-24T04:40:25.154Z,97540.81
2023-04-24T04:43:17.025Z,97625.63
2023-04-24T04:46:09.523Z,97661.22
2023-04-24T04:49:22.815Z,97659.63
2023-04-24T04:52:08.410Z,97481.81
2023-04-24T04:54:54.260Z,97468.78
2023-04-24T04:57:42.241Z,97656.91
2023-04-24T05:00:28.272Z,97511.94
2023-04-24T05:06:12.353Z,97653.75
2023-04-24T05:08:59.272Z,97557.50
2023-04-24T05:11:52.743Z,97650.78
2023-04-24T05:14:38.116Z,97637.66
2023-04-24T05:17:23.510Z,97628.88
2023-04-24T05:20:11.895Z,97565.34
2023-04-24T05:22:58.359Z,97609.28
2023-04-24T05:25:45.688Z,97466.44
2023-04-24T05:28:32.066Z,97652.63
2023-04-24T05:31:25.126Z,97493.13
2023-04-24T05:34:11.246Z,97627.78
2023-04-24T05:37:01.176Z,97592.81
2023-04-24T05:39:46.519Z,97645.72
2023-04-24T05:42:33.629Z,97595.78
2023-04-24T05:45:19.249Z,97618.31
2023-04-24T05:48:06.656Z,97630.19
2023-04-24T05:50:53.622Z,97469.81
2023-04-24T05:53:39.445Z,97589.44
2023-04-24T05:56:26.581Z,97451.47
2023-04-24T05:59:12.360Z,97612.09
2023-04-24T06:01:57.747Z,97616.13
2023-04-24T06:04:43.800Z,97617.97
2023-04-24T06:07:29.899Z,97624.38
2023-04-24T06:10:16.451Z,97576.22
2023-04-24T06:13:03.816Z,97463.63
2023-04-24T06:15:51.083Z,97439.56
2023-04-24T06:18:41.605Z,97609.72
2023-04-24T06:21:28.678Z,97482.25
2023-04-24T06:24:17.988Z,97604.88
2023-04-24T06:27:03.652Z,97433.06
2023-04-24T06:29:55.327Z,97608.84
2023-04-24T06:32:40.988Z,97598.41
2023-04-24T06:35:27.612Z,97610.69
2023-04-24T06:38:13.324Z,97583.25
2023-04-24T06:40:59.563Z,97569.91
2023-04-24T06:43:45.859Z,97508.56
2023-04-24T06:46:31.258Z,97607.28
2023-04-24T06:49:17.071Z,97617.00
2023-04-24T06:52:02.773Z,97444.59
2023-04-24T06:54:48.171Z,97557.59
2023-04-24T06:57:33.874Z,97618.53
2023-04-24T07:00:19.793Z,97609.06
2023-04-24T07:03:08.521Z,97453.41
2023-04-24T07:05:55.917Z,97461.19
2023-04-24T07:08:43.105Z,97611.78
2023-04-24T07:11:30.362Z,97603.50
2023-04-24T07:14:16.300Z,97566.22
2023-04-24T07:17:02.296Z,97574.41
2023-04-24T07:19:47.598Z,97608.53
2023-04-24T07:22:32.958Z,97463.13
2023-04-24T07:25:18.793Z,97562.53
2023-04-24T07:28:05.616Z,97432.50
2023-04-24T07:30:51.518Z,97594.47
2023-04-24T07:33:37.440Z,97616.56
2023-04-24T07:36:22.822Z,97610.50
2023-04-24T07:39:09.263Z,97562.38
2023-04-24T07:41:54.710Z,97530.94
2023-04-24T07:44:40.194Z,97488.91
2023-04-24T07:47:25.978Z,97552.41
2023-04-24T07:50:11.703Z,97430.75
2023-04-24T07:52:57.040Z,97597.66
2023-04-24T07:55:42.435Z,97577.09
2023-04-24T07:58:28.082Z,97592.69
2023-04-24T08:01:14.091Z,97570.22
2023-04-24T08:03:59.635Z,97557.47
2023-04-24T08:06:45.954Z,97508.94
2023-04-24T08:09:31.714Z,97541.38
2023-04-24T08:12:17.337Z,97501.03
2023-04-24T08:15:02.816Z,97551.13
2023-04-24T08:17:48.408Z,97413.00
2023-04-24T08:20:34.014Z,97544.63
2023-04-24T08:23:19.756Z,97471.38
2023-04-24T08:26:06.102Z,97545.22
2023-04-24T08:28:52.171Z,97520.97
2023-04-24T08:31:37.613Z,97540.31
2023-04-24T08:34:23.168Z,97476.56
2023-04-24T08:37:08.602Z,97461.63
2023-04-24T08:39:55.020Z,97513.84
2023-04-24T08:42:43.148Z,97364.44
2023-04-24T08:45:29.131Z,97548.84
2023-04-24T08:48:23.781Z,97523.72
2023-04-24T08:51:13.186Z,97540.06
2023-04-24T08:53:59.218Z,97508.97
2023-04-24T08:56:46.232Z,97388.66
2023-04-24T08:59:32.745Z,97374.06
2023-04-24T09:02:19.255Z,97394.34
2023-04-24T09:05:07.579Z,97494.06
2023-04-24T09:07:57.380Z,97515.91
2023-04-24T09:10:43.190Z,97514.81
2023-04-24T09:13:29.109Z,97517.22
2023-04-24T09:16:15.784Z,97388.25
2023-04-24T09:19:01.461Z,97515.72
2023-04-24T09:21:47.678Z,97409.19
2023-04-24T09:24:36.533Z,97364.63
2023-04-24T09:27:24.744Z,97491.91
2023-04-24T09:30:10.504Z,97457.13
2023-04-24T09:33:14.657Z,97518.06
2023-04-24T09:36:00.284Z,97446.38
2023-04-24T09:38:46.586Z,97513.59
2023-04-24T09:41:34.284Z,97497.59
2023-04-24T09:44:22.036Z,97355.81
2023-04-24T09:47:10.421Z,97478.47
2023-04-24T09:49:59.262Z,97455.59
2023-04-24T09:52:59.669Z,97483.72
2023-04-24T09:55:49.191Z,97480.97
2023-04-24T09:58:37.448Z,97485.16
2023-04-24T10:01:33.306Z,97478.88
2023-04-24T10:04:25.695Z,97469.72
2023-04-24T10:07:11.683Z,97352.72
2023-04-24T10:09:57.697Z,97459.91
2023-04-24T10:12:44.048Z,97458.72
2023-04-24T10:15:29.873Z,97465.72
2023-04-24T10:18:17.270Z,97401.13
2023-04-24T10:21:03.798Z,97462.91
2023-04-24T10:23:50.128Z,97308.22
2023-04-24T10:26:36.582Z,97469.84
2023-04-24T10:29:23.405Z,97431.69
2023-04-24T10:32:10.752Z,97418.84
2023-04-24T10:34:57.698Z,97386.22
2023-04-24T10:38:08.020Z,97316.28
2023-04-24T10:41:07.736Z,97426.16
2023-04-24T10:44:09.077Z,97431.97
2023-04-24T10:46:56.296Z,97368.22
2023-04-24T10:49:42.288Z,97462.44
2023-04-24T10:52:45.895Z,97410.59
2023-04-24T10:55:46.360Z,97406.41
2023-04-24T10:58:45.650Z,97448.28
2023-04-24T11:01:34.073Z,97416.56
2023-04-24T11:04:31.106Z,97433.75
2023-04-24T11:07:17.203Z,97402.81
2023-04-24T11:10:03.060Z,97272.53
2023-04-24T11:12:48.514Z,97385.44
2023-04-24T11:15:34.064Z,97378.41
2023-04-24T11:18:19.357Z,97265.13
2023-04-24T11:21:13.122Z,97350.84
2023-04-24T11:23:59.783Z,97434.09
2023-04-24T11:26:46.089Z,97400.72
2023-04-24T11:29:58.623Z,97419.81
2023-04-24T11:32:44.406Z,97349.66
2023-04-24T11:35:29.775Z,97290.06
2023-04-24T11:38:24.130Z,97368.88
2023-04-24T11:41:11.094Z,97402.59
2023-04-24T11:43:58.317Z,97255.16
2023-04-24T11:46:43.915Z,97392.19
2023-04-24T11:49:29.487Z,97227.44
2023-04-24T11:52:17.738Z,97390.34
2023-04-24T11:55:03.222Z,97364.91
2023-04-24T11:57:51.504Z,97376.84
2023-04-24T12:00:37.678Z,97376.13
2023-04-24T12:03:23.671Z,97363.91
2023-04-24T12:06:11.818Z,97230.53
2023-04-24T12:09:07.988Z,97227.66
2023-04-24T12:11:58.244Z,97333.75
2023-04-24T12:14:55.372Z,97342.00
2023-04-24T12:17:44.362Z,97353.75
2023-04-24T12:20:34.138Z,97313.03
2023-04-24T12:23:39.585Z,97311.72
2023-04-24T12:26:26.052Z,97349.66
2023-04-24T12:29:11.816Z,97315.28
2023-04-24T12:31:57.287Z,97331.88
2023-04-24T12:34:44.773Z,97318.16
2023-04-24T12:37:35.377Z,97270.66
2023-04-24T12:40:23.275Z,97263.75
2023-04-24T12:43:15.060Z,97350.72
2023-04-24T12:46:00.671Z,97326.03
2023-04-24T12:48:46.291Z,97184.34
2023-04-24T12:51:31.637Z,97315.00
2023-04-24T12:54:17.208Z,97274.78
2023-04-24T12:57:02.485Z,97173.97
2023-04-24T12:59:47.819Z,97320.53
2023-04-24T13:02:33.381Z,97166.16
2023-04-24T13:05:18.881Z,97299.47
2023-04-24T13:08:04.570Z,97300.88
2023-04-24T13:10:50.259Z,97218.34
2023-04-24T13:13:35.924Z,97278.44
2023-04-24T13:16:21.969Z,97154.59
2023-04-24T13:19:07.252Z,97146.63
2023-04-24T13:21:53.219Z,97278.97
2023-04-24T13:24:41.775Z,97297.38
2023-04-24T13:27:27.307Z,97153.78
2023-04-24T13:30:12.975Z,97277.63
2023-04-24T13:32:58.892Z,97253.06
2023-04-24T13:35:44.458Z,97239.00
2023-04-24T13:38:30.049Z,97257.78
2023-04-24T13:41:15.357Z,97265.78
2023-04-24T13:44:00.878Z,97269.25
2023-04-24T13:46:48.737Z,97229.56
2023-04-24T13:49:34.248Z,97230.38
2023-04-24T13:52:19.504Z,97215.56
2023-04-24T13:55:05.553Z,97199.78
2023-04-24T13:57:50.955Z,97252.66
2023-04-24T14:00:36.723Z,97247.09
2023-04-24T14:03:22.197Z,97112.69
2023-04-24T14:06:09.203Z,97102.72
2023-04-24T14:08:54.424Z,97181.50
2023-04-24T14:11:40.128Z,97167.00
2023-04-24T14:14:28.848Z,97234.19
2023-04-24T14:17:16.842Z,97224.22
2023-04-24T14:20:06.214Z,97201.13
2023-04-24T14:22:54.417Z,97083.72
2023-04-24T14:25:40.261Z,97210.44
2023-04-24T14:28:27.419Z,97245.16
2023-04-24T14:31:13.050Z,97225.41
2023-04-24T14:33:58.724Z,97225.25
2023-04-24T14:36:45.197Z,97199.06
2023-04-24T14:39:31.025Z,97189.88
2023-04-24T14:42:18.026Z,97104.44
2023-04-24T14:45:03.988Z,97148.03
2023-04-24T14:47:49.648Z,97094.75
2023-04-24T14:50:35.246Z,97209.25
2023-04-24T14:53:21.298Z,97061.13
2023-04-24T14:56:07.180Z,97216.75
2023-04-24T14:58:53.418Z,97096.00
2023-04-24T15:01:38.876Z,97207.53
2023-04-24T15:04:28.544Z,97075.81
2023-04-24T15:07:13.872Z,97198.69
2023-04-24T15:09:59.255Z,97090.44
2023-04-24T15:12:45.576Z,97062.53
2023-04-24T15:15:30.882Z,97208.28
2023-04-24T15:18:16.343Z,97172.72
2023-04-24T15:21:01.730Z,97169.13
2023-04-24T15:23:49.100Z,97039.75
2023-04-24T15:26:35.132Z,97056.84
2023-04-24T15:29:20.556Z,97073.38
2023-04-24T15:32:08.212Z,97196.97
2023-04-24T15:35:07.195Z,97177.28
2023-04-24T15:37:53.967Z,97154.31
2023-04-24T15:40:39.534Z,97158.38
2023-04-24T15:43:24.874Z,97031.34
2023-04-24T15:46:11.187Z,97102.88
2023-04-24T15:48:56.752Z,97142.97
2023-04-24T15:51:43.908Z,97158.81
2023-04-24T15:54:30.393Z,97165.88
2023-04-24T15:57:16.412Z,97157.28
2023-04-24T16:00:04.557Z,97164.44
2023-04-24T16:03:07.041Z,97155.94
2023-04-24T16:05:55.685Z,97080.00
2023-04-24T16:08:41.176Z,97167.31
2023-04-24T16:11:26.644Z,97143.22
2023-04-24T16:14:12.125Z,97155.94
2023-04-24T16:16:57.455Z,97115.69
2023-04-24T16:19:43.142Z,97181.66
2023-04-24T16:22:28.581Z,97045.59
2023-04-24T16:25:14.064Z,97030.13
2023-04-24T16:28:00.936Z,97163.03
2023-04-24T16:30:50.071Z,97166.84
2023-04-24T16:33:36.457Z,97162.34
2023-04-24T16:36:22.188Z,97169.75
2023-04-24T16:39:07.541Z,97028.56
2023-04-24T16:41:54.384Z,97162.38
2023-04-24T16:44:40.751Z,97031.06
2023-04-24T16:47:26.244Z,97015.00
2023-04-24T16:50:12.383Z,97139.44
2023-04-24T16:52:57.858Z,97078.78
2023-04-24T16:55:44.493Z,97148.84
2023-04-24T16:58:29.695Z,97178.59
2023-04-24T17:01:15.001Z,97196.50
2023-04-24T17:04:00.804Z,97133.75
2023-04-24T17:06:46.417Z,97173.56
2023-04-24T17:09:31.934Z,97179.03
2023-04-24T17:12:17.447Z,97174.41
2023-04-24T17:15:02.765Z,97025.06
2023-04-24T17:17:49.664Z,97033.41
2023-04-24T17:20:34.969Z,97180.03
2023-04-24T17:23:20.887Z,97121.91
2023-04-24T17:26:06.380Z,97171.84
2023-04-24T17:28:54.877Z,97091.09
2023-04-24T17:31:40.594Z,97172.88
2023-04-24T17:34:26.426Z,97139.03
2023-04-24T17:37:11.997Z,97184.66
2023-04-24T17:39:57.703Z,97038.91
2023-04-24T17:42:43.459Z,97179.50
2023-04-24T17:45:28.772Z,97171.31
2023-04-24T17:48:14.907Z,97192.16
2023-04-24T17:51:00.260Z,97024.91
2023-04-24T17:53:46.065Z,97156.41
2023-04-24T17:56:31.625Z,97038.97
2023-04-24T17:59:17.445Z,97182.38
2023-04-24T18:02:03.161Z,97203.78
2023-04-24T18:04:48.790Z,97171.31
2023-04-24T18:07:34.956Z,97137.97
2023-04-24T18:10:20.765Z,97054.25
2023-04-24T18:13:06.600Z,97196.44
2023-04-24T18:15:52.497Z,97205.84
2023-04-24T18:18:38.269Z,97083.56
2023-04-24T18:21:25.107Z,97211.38
2023-04-24T18:24:10.864Z,97234.44
2023-04-24T18:26:58.322Z,97223.50
2023-04-24T18:29:44.914Z,97227.69
2023-04-24T18:32:30.915Z,97206.72
2023-04-24T18:35:37.150Z,97225.13
2023-04-24T18:38:22.727Z,97223.44
2023-04-24T18:41:08.202Z,97229.84
2023-04-24T18:43:53.646Z,97229.44
2023-04-24T18:46:41.510Z,97082.44
2023-04-24T18:49:27.298Z,97067.88
2023-04-24T18:52:12.550Z,97251.41
2023-04-24T18:54:58.325Z,97082.44
2023-04-24T18:57:55.138Z,97229.06
2023-04-24T19:00:44.730Z,97229.06
2023-04-24T19:03:32.498Z,97229.44
2023-04-24T19:06:18.187Z,97208.09
2023-04-24T19:09:04.012Z,97224.28
2023-04-24T19:11:58.446Z,97211.75
2023-04-24T19:14:47.551Z,97219.13
2023-04-24T19:17:33.418Z,97193.22
2023-04-24T19:20:19.590Z,97127.72
2023-04-24T19:23:06.213Z,97245.75
2023-04-24T19:25:51.793Z,97057.56
2023-04-24T19:28:39.075Z,97169.16
2023-04-24T19:31:25.536Z,97155.75
2023-04-24T19:34:10.996Z,97195.59
2023-04-24T19:36:56.350Z,97190.00
2023-04-24T19:39:42.287Z,97188.75
2023-04-24T19:42:42.032Z,97173.00
2023-04-24T19:45:28.077Z,97038.69
2023-04-24T19:48:13.816Z,97164.63
2023-04-24T19:51:01.393Z,97177.69
2023-04-24T19:53:47.070Z,97053.53
2023-04-24T19:56:32.794Z,97205.50
2023-04-24T19:59:18.613Z,97052.72
2023-04-24T20:02:04.509Z,97182.28
2023-04-24T20:04:50.128Z,97207.13
2023-04-24T20:07:36.579Z,97035.16
2023-04-24T20:10:23.039Z,97191.13
2023-04-24T20:13:08.894Z,97198.09
2023-04-24T20:15:54.895Z,97144.25
2023-04-24T20:18:40.500Z,97038.72
2023-04-24T20:21:26.626Z,97187.78
2023-04-24T20:24:12.609Z,97096.84
2023-04-24T20:26:58.457Z,97039.44
2023-04-24T20:29:43.818Z,97190.00
2023-04-24T20:32:29.128Z,97172.31
2023-04-24T20:35:14.609Z,97157.03
2023-04-24T20:38:01.687Z,97086.66
2023-04-24T20:40:57.146Z,97184.44
2023-04-24T20:43:43.344Z,97185.69
2023-04-24T20:46:29.212Z,97221.84
2023-04-24T20:49:14.600Z,97202.06
2023-04-24T20:51:59.928Z,97189.88
2023-04-24T20:54:46.710Z,97048.59
2023-04-24T20:57:32.685Z,97197.28
2023-04-24T21:00:18.398Z,97052.34
2023-04-24T21:03:05.324Z,97058.63
2023-04-24T21:05:51.386Z,97213.50
2023-04-24T21:08:37.849Z,97209.88
2023-04-24T21:11:23.588Z,97095.97
2023-04-24T21:14:09.302Z,97212.78
2023-04-24T21:16:57.535Z,97190.91
2023-04-24T21:19:43.368Z,97221.44
2023-04-24T21:22:28.780Z,97195.94
2023-04-24T21:25:14.290Z,97208.09
2023-04-24T21:27:59.861Z,97203.25
2023-04-24T21:30:45.386Z,97032.97
2023-04-24T21:33:30.938Z,97208.09
2023-04-24T21:36:16.199Z,97191.34
2023-04-24T21:39:01.582Z,97126.59
2023-04-24T21:41:47.629Z,97189.16
2023-04-24T21:44:33.023Z,97126.59
2023-04-24T21:47:18.628Z,97100.47
2023-04-24T21:50:05.287Z,97193.19
2023-04-24T21:52:51.046Z,97042.16
2023-04-24T21:55:36.559Z,97148.00
2023-04-24T21:58:21.914Z,97026.06
2023-04-24T22:01:07.489Z,97047.06
2023-04-24T22:03:53.283Z,97028.53
2023-04-24T22:06:39.161Z,97069.75
2023-04-24T22:09:24.732Z,97043.16
2023-04-24T22:12:10.077Z,97021.63
2023-04-24T22:14:56.098Z,97128.69
2023-04-24T22:17:42.116Z,97069.28
2023-04-24T22:20:28.033Z,97063.44
2023-04-24T22:23:13.497Z,97117.88
2023-04-24T22:25:58.882Z,97014.34
2023-04-24T22:28:45.156Z,97112.84
2023-04-24T22:31:31.933Z,97009.22
2023-04-24T22:34:17.218Z,97171.78
2023-04-24T22:37:02.781Z,97170.69
2023-04-24T22:39:47.992Z,97008.13
2023-04-24T22:42:33.509Z,96971.69
2023-04-24T22:45:19.548Z,97167.91
2023-04-24T22:48:05.038Z,97153.75
2023-04-24T22:50:52.436Z,97152.34
2023-04-24T22:53:37.974Z,97159.44
2023-04-24T22:56:23.599Z,97122.97
2023-04-24T22:59:09.528Z,97160.47
2023-04-24T23:01:58.014Z,97126.78
2023-04-24T23:04:43.274Z,96969.00
2023-04-24T23:07:29.086Z,97143.16
2023-04-24T23:10:14.664Z,97013.25
2023-04-24T23:13:00.246Z,97154.63
2023-04-24T23:15:45.475Z,97140.41
2023-04-24T23:18:31.485Z,97125.19
2023-04-24T23:21:17.456Z,97124.25
2023-04-24T23:24:02.921Z,97132.50
2023-04-24T23:26:48.427Z,97059.09
2023-04-24T23:29:33.810Z,97124.16
2023-04-24T23:32:19.192Z,97134.06
2023-04-24T23:35:05.048Z,96968.03
2023-04-24T23:37:50.640Z,96961.25
2023-04-24T23:40:36.321Z,97081.72
2023-04-24T23:43:22.024Z,96916.78
2023-04-24T23:46:07.401Z,96962.09
2023-04-24T23:48:52.815Z,97033.66
2023-04-24T23:51:38.473Z,96948.28
2023-04-24T23:54:24.445Z,97096.75
2023-04-24T23:57:10.254Z,97088.94
2023-04-24T23:59:55.830Z,97110.78
